createdAt,value
2022-11-18T00:00:49.508Z,2.47
2022-11-18T00:03:36.456Z,4.03
2022-11-18T00:06:26.546Z,3.20
2022-11-18T00:09:13.168Z,4.60
2022-11-18T00:12:18.871Z,3.95
2022-11-18T00:15:06.309Z,3.65
2022-11-18T00:17:52.857Z,2.73
2022-11-18T00:20:39.589Z,1.73
2022-11-18T00:23:26.504Z,4.67
2022-11-18T00:26:15.691Z,3.10
2022-11-18T00:29:03.997Z,3.20
2022-11-18T00:31:51.554Z,4.50
2022-11-18T00:34:38.385Z,3.97
2022-11-18T00:37:25.374Z,4.00
2022-11-18T00:40:13.856Z,4.80
2022-11-18T00:42:59.834Z,3.00
2022-11-18T00:45:48.275Z,4.07
2022-11-18T00:48:35.408Z,4.23
2022-11-18T00:51:22.467Z,3.33
2022-11-18T00:54:12.796Z,6.00
2022-11-18T00:57:00.009Z,2.83
2022-11-18T00:59:46.928Z,2.60
2022-11-18T01:02:35.825Z,3.80
2022-11-18T01:05:22.992Z,6.17
2022-11-18T01:08:12.217Z,3.17
2022-11-18T01:11:21.662Z,3.40
2022-11-18T01:14:07.604Z,3.43
2022-11-18T01:16:56.575Z,4.57
2022-11-18T01:19:45.224Z,6.37
2022-11-18T01:22:32.662Z,3.77
2022-11-18T01:25:19.831Z,2.13
2022-11-18T01:28:08.240Z,2.90
2022-11-18T01:30:55.150Z,3.40
2022-11-18T01:33:42.406Z,5.00
2022-11-18T01:36:33.860Z,4.27
2022-11-18T01:39:20.777Z,5.13
2022-11-18T01:42:15.910Z,2.33
2022-11-18T01:45:16.822Z,2.23
2022-11-18T01:48:12.011Z,3.93
2022-11-18T01:51:05.061Z,2.83
2022-11-18T01:54:00.269Z,1.73
2022-11-18T01:56:54.239Z,2.57
2022-11-18T01:59:45.464Z,2.90
2022-11-18T02:02:38.104Z,2.10
2022-11-18T02:05:27.324Z,2.50
2022-11-18T02:08:16.820Z,3.13
2022-11-18T02:11:05.875Z,2.37
2022-11-18T02:13:52.901Z,3.57
2022-11-18T02:17:02.030Z,2.83
2022-11-18T02:20:20.104Z,3.87
2022-11-18T02:24:10.942Z,3.17
2022-11-18T02:27:53.899Z,3.93
2022-11-18T02:30:54.859Z,2.00
2022-11-18T02:33:55.769Z,3.10
2022-11-18T02:36:52.760Z,2.43
2022-11-18T02:39:48.481Z,2.60
2022-11-18T02:42:41.425Z,4.27
2022-11-18T02:45:32.085Z,1.97
2022-11-18T02:48:25.733Z,3.83
2022-11-18T02:51:15.576Z,5.00
2022-11-18T02:54:08.285Z,2.27
2022-11-18T02:56:57.402Z,3.57
2022-11-18T02:59:44.436Z,3.07
2022-11-18T03:02:43.237Z,2.73
2022-11-18T03:05:44.276Z,2.47
2022-11-18T03:08:39.953Z,3.57
2022-11-18T03:11:34.276Z,3.00
2022-11-18T03:14:34.406Z,3.47
2022-11-18T03:17:36.419Z,3.83
2022-11-18T03:20:29.140Z,3.00
2022-11-18T03:23:29.476Z,3.03
2022-11-18T03:26:24.112Z,2.80
2022-11-18T03:29:20.948Z,2.73
2022-11-18T03:32:27.856Z,3.27
2022-11-18T03:35:22.071Z,3.50
2022-11-18T03:38:15.363Z,4.30
2022-11-18T03:41:11.188Z,3.37
2022-11-18T03:44:05.227Z,3.10
2022-11-18T03:47:00.300Z,2.67
2022-11-18T03:49:56.020Z,3.23
2022-11-18T03:52:44.801Z,2.43
2022-11-18T03:55:38.663Z,4.67
2022-11-18T03:58:35.030Z,4.03
2022-11-18T04:01:35.634Z,2.37
2022-11-18T04:04:23.748Z,4.57
2022-11-18T04:07:23.512Z,5.03
2022-11-18T04:10:17.500Z,4.30
2022-11-18T04:13:09.266Z,4.70
2022-11-18T04:15:58.264Z,4.87
2022-11-18T04:18:45.778Z,3.97
2022-11-18T04:21:33.093Z,3.87
2022-11-18T04:24:22.262Z,2.23
2022-11-18T04:27:09.796Z,4.97
2022-11-18T04:29:56.795Z,1.93
2022-11-18T04:32:45.329Z,2.30
2022-11-18T04:35:40.552Z,4.00
2022-11-18T04:38:27.386Z,2.00
2022-11-18T04:41:17.581Z,3.27
2022-11-18T04:44:13.428Z,2.40
2022-11-18T04:47:06.035Z,4.17
2022-11-18T04:49:55.682Z,4.50
2022-11-18T04:52:44.784Z,3.67
2022-11-18T04:55:38.114Z,3.40
2022-11-18T04:58:25.302Z,2.97
2022-11-18T05:01:18.902Z,2.70
2022-11-18T05:04:08.221Z,2.37
2022-11-18T05:06:57.967Z,4.87
2022-11-18T05:09:45.035Z,2.97
2022-11-18T05:12:50.611Z,3.63
2022-11-18T05:15:42.708Z,5.27
2022-11-18T05:18:34.950Z,2.47
2022-11-18T05:21:34.796Z,2.63
2022-11-18T05:29:03.384Z,4.30
2022-11-18T05:31:56.802Z,2.53
2022-11-18T05:38:28.324Z,3.83
2022-11-18T05:42:22.006Z,2.77
2022-11-18T06:50:12.740Z,3.60
2022-11-18T06:53:02.332Z,4.23
2022-11-18T06:55:49.207Z,4.13
2022-11-18T06:58:37.479Z,3.30
2022-11-18T07:01:26.669Z,5.57
2022-11-18T07:04:13.500Z,3.27
2022-11-18T07:07:01.878Z,7.97
2022-11-18T07:09:48.658Z,6.67
2022-11-18T07:12:35.351Z,4.27
2022-11-18T07:15:22.226Z,3.17
2022-11-18T07:18:09.059Z,3.97
2022-11-18T07:20:56.007Z,4.50
2022-11-18T07:23:44.834Z,2.87
2022-11-18T07:26:31.909Z,4.77
2022-11-18T07:29:18.756Z,4.23
2022-11-18T07:32:07.174Z,3.57
2022-11-18T07:34:53.856Z,3.47
2022-11-18T07:37:40.678Z,5.70
2022-11-18T07:40:28.962Z,3.23
2022-11-18T07:43:15.661Z,3.30
2022-11-18T07:46:12.683Z,4.07
2022-11-18T07:49:02.513Z,8.93
2022-11-18T07:51:49.324Z,7.47
2022-11-18T07:54:35.938Z,8.17
2022-11-18T07:57:24.074Z,5.93
2022-11-18T08:00:12.470Z,6.77
2022-11-18T08:02:59.196Z,5.53
2022-11-18T08:05:46.174Z,4.17
2022-11-18T08:08:33.170Z,5.90
2022-11-18T08:11:22.971Z,3.87
2022-11-18T08:14:11.088Z,5.90
2022-11-18T08:16:57.957Z,4.23
2022-11-18T08:19:45.083Z,3.77
2022-11-18T08:22:32.119Z,3.50
2022-11-18T08:25:18.991Z,4.40
2022-11-18T08:28:08.633Z,5.07
2022-11-18T08:30:56.803Z,5.87
2022-11-18T08:33:43.462Z,4.53
2022-11-18T08:36:33.376Z,4.63
2022-11-18T08:39:20.260Z,5.10
2022-11-18T08:42:07.041Z,5.70
2022-11-18T08:44:53.793Z,3.47
2022-11-18T08:47:42.143Z,5.43
2022-11-18T08:50:29.684Z,4.07
2022-11-18T08:53:17.017Z,3.97
2022-11-18T08:56:03.647Z,4.47
2022-11-18T08:58:50.768Z,4.33
2022-11-18T09:01:38.083Z,10.37
2022-11-18T09:04:26.420Z,3.87
2022-11-18T09:07:13.101Z,6.03
2022-11-18T09:09:59.868Z,3.63
2022-11-18T09:12:46.581Z,7.03
2022-11-18T09:15:33.341Z,3.90
2022-11-18T09:18:20.451Z,5.77
2022-11-18T09:21:11.014Z,6.53
2022-11-18T09:23:58.155Z,5.40
2022-11-18T09:26:44.779Z,5.60
2022-11-18T09:29:31.992Z,5.23
2022-11-18T09:32:19.518Z,6.37
2022-11-18T09:35:06.804Z,4.40
2022-11-18T09:37:55.084Z,5.30
2022-11-18T09:40:56.651Z,6.23
2022-11-18T09:43:57.617Z,5.33
2022-11-18T09:47:01.639Z,4.17
2022-11-18T09:49:50.457Z,3.53
2022-11-18T09:52:44.939Z,4.50
2022-11-18T09:55:38.208Z,5.23
2022-11-18T09:58:35.849Z,4.77
2022-11-18T10:01:26.257Z,6.20
2022-11-18T10:04:17.845Z,5.37
2022-11-18T10:07:16.635Z,5.57
2022-11-18T10:10:14.297Z,4.03
2022-11-18T10:13:14.642Z,4.83
2022-11-18T10:16:14.561Z,8.73
2022-11-18T10:19:17.815Z,5.27
2022-11-18T10:22:24.309Z,6.82
2022-11-18T10:25:15.516Z,6.37
2022-11-18T10:28:18.041Z,5.70
2022-11-18T10:31:07.872Z,4.25
2022-11-18T10:34:01.771Z,3.77
2022-11-18T10:37:01.197Z,5.87
2022-11-18T10:39:53.582Z,7.37
2022-11-18T10:42:46.428Z,4.07
2022-11-18T10:45:34.708Z,4.82
2022-11-18T10:48:21.757Z,4.95
2022-11-18T10:51:24.107Z,5.10
2022-11-18T10:54:17.581Z,7.13
2022-11-18T10:57:15.856Z,8.70
2022-11-18T11:00:03.192Z,9.23
2022-11-18T11:02:51.006Z,8.82
2022-11-18T11:05:37.907Z,10.13
2022-11-18T11:08:40.069Z,8.70
2022-11-18T11:11:30.838Z,7.00
2022-11-18T11:14:24.950Z,8.63
2022-11-18T11:17:16.270Z,10.80
2022-11-18T11:20:16.447Z,8.00
2022-11-18T11:23:08.705Z,8.10
2022-11-18T11:29:28.428Z,9.32
2022-11-18T11:32:30.426Z,10.25
2022-11-18T11:35:24.334Z,11.07
2022-11-18T11:38:21.874Z,9.93
2022-11-18T11:41:22.709Z,10.52
2022-11-18T11:44:41.501Z,11.55
2022-11-18T11:47:57.379Z,12.47
2022-11-18T11:51:03.840Z,11.93
2022-11-18T11:54:09.763Z,14.70
2022-11-18T11:57:03.364Z,13.50
2022-11-18T12:00:02.457Z,12.95
2022-11-18T12:03:06.454Z,13.52
2022-11-18T12:05:54.638Z,14.85
2022-11-18T12:08:53.745Z,12.65
2022-11-18T12:11:49.890Z,11.55
2022-11-18T12:14:45.338Z,15.55
2022-11-18T12:17:42.946Z,14.85
2022-11-18T12:20:40.612Z,16.95
2022-11-18T12:23:30.584Z,14.38
2022-11-18T12:26:36.287Z,18.00
2022-11-18T12:29:27.035Z,15.48
2022-11-18T12:32:34.775Z,15.75
2022-11-18T12:35:29.485Z,17.10
2022-11-18T12:38:33.544Z,14.10
2022-11-18T12:42:12.399Z,14.82
2022-11-18T12:45:58.014Z,10.43
2022-11-18T12:48:44.761Z,12.13
2022-11-18T12:51:50.240Z,11.52
2022-11-18T12:54:45.224Z,10.43
2022-11-18T12:57:35.327Z,10.20
2022-11-18T13:00:49.375Z,15.73
2022-11-18T13:03:36.208Z,10.93
2022-11-18T13:06:27.721Z,11.48
2022-11-18T13:09:19.702Z,12.55
2022-11-18T13:12:18.851Z,15.48
2022-11-18T13:15:31.047Z,15.35
2022-11-18T13:18:21.676Z,16.75
2022-11-18T13:21:24.654Z,14.13
2022-11-18T13:24:14.507Z,15.73
2022-11-18T13:27:01.482Z,14.30
2022-11-18T13:29:58.896Z,14.38
2022-11-18T13:32:48.600Z,14.18
2022-11-18T13:35:40.740Z,15.70
2022-11-18T13:38:28.783Z,14.02
2022-11-18T13:41:24.100Z,15.48
2022-11-18T13:44:20.075Z,14.27
2022-11-18T13:47:23.227Z,15.70
2022-11-18T13:50:24.065Z,13.95
2022-11-18T13:53:29.085Z,15.63
2022-11-18T13:56:22.949Z,17.80
2022-11-18T13:59:20.504Z,16.48
2022-11-18T14:02:15.554Z,12.85
2022-11-18T14:05:03.319Z,15.85
2022-11-18T14:08:07.090Z,10.95
2022-11-18T14:10:54.004Z,11.82
2022-11-18T14:14:00.959Z,10.90
2022-11-18T14:16:47.625Z,8.43
2022-11-18T14:19:38.466Z,8.55
2022-11-18T14:22:28.474Z,8.38
2022-11-18T14:25:23.451Z,9.33
2022-11-18T14:28:22.418Z,7.73
2022-11-18T14:31:25.947Z,8.55
2022-11-18T14:34:24.703Z,7.27
2022-11-18T14:37:15.461Z,11.23
2022-11-18T14:40:02.188Z,8.07
2022-11-18T14:42:48.911Z,8.33
2022-11-18T14:45:35.738Z,8.13
2022-11-18T14:48:31.135Z,6.53
2022-11-18T14:51:19.079Z,8.10
2022-11-18T14:54:07.397Z,7.50
2022-11-18T14:56:56.591Z,7.72
2022-11-18T14:59:43.878Z,7.50
2022-11-18T15:02:30.620Z,7.77
2022-11-18T15:05:17.487Z,5.77
2022-11-18T15:08:05.720Z,7.93
2022-11-18T15:10:53.539Z,5.33
2022-11-18T15:13:41.482Z,11.33
2022-11-18T15:16:31.221Z,8.33
2022-11-18T15:19:18.130Z,7.93
2022-11-18T15:22:04.624Z,7.70
2022-11-18T15:24:51.502Z,7.77
2022-11-18T15:27:39.968Z,8.23
2022-11-18T15:30:26.577Z,7.80
2022-11-18T15:33:13.293Z,7.57
2022-11-18T15:36:00.019Z,6.87
2022-11-18T15:38:48.116Z,8.07
2022-11-18T15:41:34.875Z,6.87
2022-11-18T15:44:22.977Z,9.47
2022-11-18T15:47:09.455Z,9.07
2022-11-18T15:49:56.371Z,8.07
2022-11-18T15:52:42.959Z,9.07
2022-11-18T15:55:29.842Z,10.00
2022-11-18T15:58:17.343Z,9.10
2022-11-18T16:01:06.049Z,6.60
2022-11-18T16:03:52.537Z,8.17
2022-11-18T16:06:40.006Z,8.00
2022-11-18T16:09:48.295Z,9.13
2022-11-18T16:12:49.196Z,8.43
2022-11-18T16:15:47.914Z,7.73
2022-11-18T16:18:40.584Z,9.23
2022-11-18T16:21:28.601Z,7.17
2022-11-18T16:24:18.562Z,8.30
2022-11-18T16:27:05.514Z,6.60
2022-11-18T16:29:52.697Z,7.63
2022-11-18T16:32:39.346Z,6.87
2022-11-18T16:35:27.763Z,6.80
2022-11-18T16:38:14.348Z,7.93
2022-11-18T16:41:01.743Z,7.97
2022-11-18T16:43:50.589Z,7.43
2022-11-18T16:46:40.552Z,6.67
2022-11-18T16:49:29.038Z,7.53
2022-11-18T16:52:17.290Z,8.13
2022-11-18T16:55:04.105Z,6.73
2022-11-18T16:57:50.964Z,8.87
2022-11-18T17:01:09.250Z,8.95
2022-11-18T17:03:44.026Z,6.10
2022-11-18T17:06:32.633Z,6.97
2022-11-18T17:09:23.298Z,5.77
2022-11-18T17:12:10.301Z,9.60
2022-11-18T17:14:57.001Z,4.90
2022-11-18T17:17:43.959Z,7.57
2022-11-18T17:20:30.571Z,7.40
2022-11-18T17:23:17.474Z,7.53
2022-11-18T17:26:06.761Z,8.50
2022-11-18T17:28:53.961Z,8.43
2022-11-18T17:31:41.788Z,7.17
2022-11-18T17:34:28.269Z,6.77
2022-11-18T17:37:14.940Z,5.70
2022-11-18T17:40:01.581Z,8.57
2022-11-18T17:42:51.129Z,7.20
2022-11-18T17:45:42.082Z,6.40
2022-11-18T17:48:30.636Z,9.87
2022-11-18T17:51:17.424Z,9.27
2022-11-18T17:54:04.067Z,7.90
2022-11-18T17:56:52.495Z,8.57
2022-11-18T17:59:40.595Z,6.60
2022-11-18T18:02:27.943Z,11.40
2022-11-18T18:05:15.211Z,7.03
2022-11-18T18:08:04.269Z,9.17
2022-11-18T18:10:51.176Z,6.97
2022-11-18T18:13:52.968Z,7.80
2022-11-18T18:16:43.660Z,8.67
2022-11-18T18:19:30.501Z,8.00
2022-11-18T18:22:17.268Z,9.57
2022-11-18T18:25:03.813Z,10.40
2022-11-18T18:27:50.924Z,10.70
2022-11-18T18:30:37.268Z,8.43
2022-11-18T18:33:25.296Z,7.47
2022-11-18T18:36:15.199Z,8.03
2022-11-18T18:39:02.328Z,6.03
2022-11-18T18:41:49.111Z,12.03
2022-11-18T18:44:53.692Z,8.67
2022-11-18T18:47:40.542Z,9.80
2022-11-18T18:50:29.940Z,7.63
2022-11-18T18:53:16.458Z,6.40
2022-11-18T18:56:03.145Z,7.30
2022-11-18T18:58:50.139Z,2.87
2022-11-18T19:01:38.233Z,4.80
2022-11-18T19:04:25.663Z,4.33
2022-11-18T19:07:14.518Z,4.63
2022-11-18T19:10:02.160Z,4.97
2022-11-18T19:13:03.314Z,5.60
2022-11-18T19:15:59.867Z,7.47
2022-11-18T19:18:49.490Z,3.97
2022-11-18T19:21:37.686Z,5.20
2022-11-18T19:27:41.603Z,5.10
2022-11-18T19:30:48.329Z,5.03
2022-11-18T19:33:37.817Z,5.47
2022-11-18T19:36:26.083Z,5.20
2022-11-18T19:39:13.441Z,5.53
2022-11-18T19:42:02.942Z,4.93
2022-11-18T19:44:50.528Z,5.43
2022-11-18T19:47:38.627Z,5.90
2022-11-18T19:50:25.552Z,5.87
2022-11-18T19:53:26.459Z,4.83
2022-11-18T19:56:22.701Z,6.47
2022-11-18T19:59:13.506Z,3.73
2022-11-18T20:02:00.686Z,5.17
2022-11-18T20:05:04.416Z,8.30
2022-11-18T20:07:56.776Z,6.40
2022-11-18T20:10:45.033Z,4.40
2022-11-18T20:13:33.279Z,6.97
2022-11-18T20:16:25.047Z,6.10
2022-11-18T20:19:17.327Z,6.27
2022-11-18T20:22:05.066Z,6.33
2022-11-18T20:24:52.371Z,10.77
2022-11-18T20:27:39.184Z,5.43
2022-11-18T20:30:28.228Z,7.23
2022-11-18T20:33:22.634Z,6.87
2022-11-18T20:36:26.242Z,7.37
2022-11-18T20:39:17.652Z,7.93
2022-11-18T20:42:24.939Z,5.93
2022-11-18T20:45:16.204Z,4.73
2022-11-18T20:48:03.342Z,6.73
2022-11-18T20:50:52.477Z,5.07
2022-11-18T20:53:46.425Z,5.83
2022-11-18T20:56:33.455Z,4.77
2022-11-18T20:59:32.731Z,8.53
2022-11-18T21:02:20.303Z,7.17
2022-11-18T21:05:08.836Z,9.40
2022-11-18T21:07:57.601Z,7.00
2022-11-18T21:10:48.592Z,5.53
2022-11-18T21:13:56.124Z,5.90
2022-11-18T21:16:51.935Z,4.87
2022-11-18T21:19:39.168Z,4.43
2022-11-18T21:22:27.006Z,6.47
2022-11-18T21:25:17.869Z,6.93
2022-11-18T21:28:09.372Z,4.83
2022-11-18T21:30:57.199Z,5.67
2022-11-18T21:33:48.858Z,7.53
2022-11-18T21:36:45.104Z,5.40
2022-11-18T21:39:39.991Z,5.97
2022-11-18T21:42:32.222Z,6.53
2022-11-18T21:45:25.177Z,5.33
2022-11-18T21:48:12.444Z,5.80
2022-11-18T21:51:02.007Z,8.20
2022-11-18T21:54:07.386Z,4.43
2022-11-18T21:56:54.705Z,6.67
2022-11-18T21:59:49.717Z,4.50
2022-11-18T22:02:42.492Z,5.07
2022-11-18T22:05:49.309Z,4.40
2022-11-18T22:08:39.534Z,6.97
2022-11-18T22:11:29.610Z,5.33
2022-11-18T22:14:20.439Z,5.43
2022-11-18T22:17:15.295Z,4.67
2022-11-18T22:20:02.652Z,3.90
2022-11-18T22:22:51.065Z,4.07
2022-11-18T22:25:38.056Z,4.63
2022-11-18T22:28:27.432Z,4.80
2022-11-18T22:31:17.627Z,5.23
2022-11-18T22:34:06.423Z,5.17
2022-11-18T22:36:59.204Z,4.57
2022-11-18T22:39:53.210Z,5.67
2022-11-18T22:42:48.686Z,5.07
2022-11-18T22:45:36.352Z,7.00
2022-11-18T22:48:26.600Z,5.67
2022-11-18T22:51:20.679Z,5.70
2022-11-18T22:54:37.163Z,7.33
2022-11-18T22:57:23.829Z,5.17
2022-11-18T23:00:23.598Z,7.33
2022-11-18T23:03:10.640Z,7.63
2022-11-18T23:05:57.528Z,8.63
2022-11-18T23:08:45.934Z,8.60
2022-11-18T23:11:50.752Z,6.03
2022-11-18T23:14:37.832Z,7.50
2022-11-18T23:17:26.769Z,6.13
2022-11-18T23:20:13.609Z,6.70
2022-11-18T23:23:01.649Z,10.17
2022-11-18T23:25:49.990Z,9.13
2022-11-18T23:28:37.801Z,13.77
2022-11-18T23:31:27.444Z,7.37
2022-11-18T23:34:17.382Z,8.97
2022-11-18T23:37:04.160Z,9.13
2022-11-18T23:39:50.880Z,10.50
2022-11-18T23:42:39.242Z,8.30
2022-11-18T23:45:26.021Z,13.87
2022-11-18T23:48:13.034Z,9.90
2022-11-18T23:51:03.107Z,9.03
2022-11-18T23:53:54.890Z,11.70
2022-11-18T23:56:41.558Z,7.87
2022-11-18T23:59:30.105Z,11.80
